Aeroporto :
LOGIN :

Iscrizione | Disclaimer

   EN    FR    IT 

 










Sommario :    VFR   VFR Marginale   IFR   IFR Intensivo   IFR Molto Intensivo
Visibilità : 
Base nubi : 
>= 8 km
>= 3000ft
5 / 8 km
1000 / 3000 ft
1500m / 5 km
500 / 1000 ft
800 / 1500m
200 / 500 ft
< 800m
< 200 ft
Simboli :   Temporali  Nebbia  Neve Forte  Precipitazioni Forti  Vento > 20 kt
SIGMETs :   Varie  Temporali  Ghiacco  Turbolenza  Onda orograficha  Ceneri Vulcaniche







- Altitudine del aeroporto : 10 ft
- Codice IATA : TTU


GMTN - Saniat R'Mel

ULTIMO METAR :
  • 261700Z 11018KT 4000 BR BKN010 BKN020 16/12 Q1012 NOSIG

METARs OBSOLETI :
  • 261600Z 11018KT 4000 BR BKN010 BKN020 16/12 Q1012 NOSIG
  • 261500Z 10018KT 4000 BR BKN010 BKN020 16/12 Q1013 NOSIG

TAF N/A
Nessun NOTAM noto per questo aeroporto.
2 SIGMETs conosciuti per la FIR Casablanca (GMMM) :
 
Turbolenza severa
GMMM SIGMET T3 VALID 261430/261830 GMMC
GMMM CASABLANCA FIR SEV TURB FCST N OF LINE N3530 W00203 - N3511 W00 410 - N3534 W00622 SFC/ FL070 STNR NC=
Temporali
GMMM SIGMET A4 VALID 261800/262000 GMMC
GMMM CASABLANCA FIR OBS TS WI N3332 W00923 - N3346 W00704 - N3433 W 00507 - N3249 W00500 - N3015 W00807 - N3125 W00949 - N3322 W00923 T OP FL460 STNR NC=



MetMap, La meteo Aeronautica in un colpo d'occhio ! - Copyright ORBIFLY Dicembre 2007 - Disclaimer

ORBIFLY MET'MAP TEAM :

Programmazione e sviluppo : Alexandra Zaïnal
Concezione e sviluppo : Baudouin d'Aumeries
Co-Programmazione e sviluppo : Marc-Olivier Méhu
Supporto tecnico e logistico : Manuel Goepfert
Aiuto per la traduzione : Arnaldo La Scala

Contatto : metmap@orbifly.com




FONTI E CREDITI :

   NOAA